createdAt,value
2023-01-03T00:02:24.488Z,21.55
2023-01-03T00:04:54.479Z,21.56
2023-01-03T00:07:36.043Z,21.54
2023-01-03T00:10:11.491Z,21.53
2023-01-03T00:12:40.225Z,21.52
2023-01-03T00:15:11.525Z,21.52
2023-01-03T00:17:43.532Z,21.53
2023-01-03T00:20:14.366Z,21.53
2023-01-03T00:22:44.935Z,21.53
2023-01-03T00:25:17.728Z,21.53
2023-01-03T00:27:47.993Z,21.52
2023-01-03T00:30:18.228Z,21.53
2023-01-03T00:32:48.803Z,21.55
2023-01-03T00:35:19.509Z,21.55
2023-01-03T00:37:49.966Z,21.56
2023-01-03T00:40:22.346Z,21.56
2023-01-03T00:43:09.575Z,21.56
2023-01-03T00:45:39.670Z,21.56
2023-01-03T00:48:10.583Z,21.57
2023-01-03T00:50:41.655Z,21.56
2023-01-03T00:53:12.053Z,21.55
2023-01-03T00:55:44.192Z,21.53
2023-01-03T00:58:14.677Z,21.52
2023-01-03T01:00:45.292Z,21.51
2023-01-03T01:03:18.250Z,21.51
2023-01-03T01:05:48.844Z,21.51
2023-01-03T01:08:19.248Z,21.50
2023-01-03T01:11:04.245Z,21.51
2023-01-03T01:13:36.252Z,21.49
2023-01-03T01:16:11.212Z,21.49
2023-01-03T01:18:43.436Z,21.47
2023-01-03T01:21:16.933Z,21.46
2023-01-03T01:23:48.630Z,21.44
2023-01-03T01:26:23.822Z,21.44
2023-01-03T01:28:55.921Z,21.44
2023-01-03T01:31:29.632Z,21.44
2023-01-03T01:34:00.975Z,21.43
2023-01-03T01:36:34.726Z,21.43
2023-01-03T01:39:08.376Z,21.42
2023-01-03T01:41:58.753Z,21.41
2023-01-03T01:44:56.687Z,21.38
2023-01-03T01:47:47.655Z,21.35
2023-01-03T01:50:26.541Z,21.33
2023-01-03T01:53:04.756Z,21.32
2023-01-03T01:55:41.839Z,21.33
2023-01-03T01:58:14.942Z,21.32
2023-01-03T02:00:47.718Z,21.34
2023-01-03T02:03:17.803Z,21.34
2023-01-03T02:05:54.217Z,21.35
2023-01-03T02:14:02.396Z,21.38
2023-01-03T02:16:57.647Z,21.39
2023-01-03T02:20:05.687Z,21.39
2023-01-03T02:23:17.626Z,21.38
2023-01-03T02:26:33.326Z,21.35
2023-01-03T02:29:47.166Z,21.36
2023-01-03T02:35:05.347Z,21.38
2023-01-03T02:37:43.227Z,21.38
2023-01-03T02:40:26.047Z,21.39
2023-01-03T02:46:03.073Z,21.35
2023-01-03T02:48:54.402Z,21.33
2023-01-03T02:51:31.857Z,21.31
2023-01-03T02:54:05.655Z,21.30
2023-01-03T02:56:45.775Z,21.28
2023-01-03T02:59:22.957Z,21.26
2023-01-03T03:01:55.370Z,21.25
2023-01-03T03:04:28.920Z,21.25
2023-01-03T03:07:11.033Z,21.24
2023-01-03T03:10:02.321Z,21.22
2023-01-03T03:12:53.335Z,21.22
2023-01-03T03:15:28.350Z,21.21
2023-01-03T03:18:08.251Z,21.21
2023-01-03T03:20:57.451Z,21.20
2023-01-03T03:23:50.149Z,21.19
2023-01-03T03:26:28.013Z,21.19
2023-01-03T03:29:03.505Z,21.21
2023-01-03T03:31:42.615Z,21.24
2023-01-03T03:34:18.828Z,21.27
2023-01-03T03:36:57.080Z,21.30
2023-01-03T03:39:46.814Z,21.31
2023-01-03T03:42:42.765Z,21.30
2023-01-03T03:45:20.446Z,21.30
2023-01-03T03:48:29.636Z,21.31
2023-01-03T03:51:09.509Z,21.28
2023-01-03T03:53:45.965Z,21.30
2023-01-03T03:56:21.918Z,21.31
2023-01-03T03:59:00.018Z,21.32
2023-01-03T04:01:32.704Z,21.33
2023-01-03T04:04:10.616Z,21.35
2023-01-03T04:06:52.781Z,21.35
2023-01-03T04:09:25.605Z,21.35
2023-01-03T04:11:56.115Z,21.32
2023-01-03T04:14:26.275Z,21.32
2023-01-03T04:16:56.817Z,21.30
2023-01-03T04:19:26.899Z,21.29
2023-01-03T04:21:57.662Z,21.26
2023-01-03T04:24:30.774Z,21.23
2023-01-03T04:27:01.152Z,21.19
2023-01-03T04:29:37.081Z,21.20
2023-01-03T04:32:10.557Z,21.20
2023-01-03T04:34:41.380Z,21.20
2023-01-03T04:37:11.966Z,21.22
2023-01-03T04:39:44.332Z,21.23
2023-01-03T04:42:27.851Z,21.24
2023-01-03T04:44:58.364Z,21.24
2023-01-03T04:47:28.934Z,21.25
2023-01-03T04:49:59.175Z,21.25
2023-01-03T04:52:29.884Z,21.27
2023-01-03T04:55:02.327Z,21.28
2023-01-03T04:57:32.936Z,21.29
2023-01-03T05:00:04.352Z,21.33
2023-01-03T05:02:34.505Z,21.35
2023-01-03T05:05:04.635Z,21.36
2023-01-03T05:07:35.380Z,21.39
2023-01-03T05:10:08.745Z,21.39
2023-01-03T05:12:39.276Z,21.36
2023-01-03T05:15:11.031Z,21.33
2023-01-03T05:17:41.800Z,21.33
2023-01-03T05:20:30.036Z,21.33
2023-01-03T05:23:17.157Z,21.32
2023-01-03T05:25:52.494Z,21.31
2023-01-03T05:28:25.697Z,21.32
2023-01-03T05:30:56.287Z,21.32
2023-01-03T05:33:26.349Z,21.34
2023-01-03T05:38:26.806Z,21.39
2023-01-03T05:40:59.067Z,21.42
2023-01-03T05:43:29.478Z,21.42
2023-01-03T05:46:00.128Z,21.42
2023-01-03T05:48:30.371Z,21.42
2023-01-03T05:51:01.309Z,21.42
2023-01-03T05:53:31.961Z,21.43
2023-01-03T05:56:08.189Z,21.44
2023-01-03T05:58:38.161Z,21.44
2023-01-03T06:01:13.738Z,21.45
2023-01-03T06:03:48.184Z,21.47
2023-01-03T06:06:19.542Z,21.49
2023-01-03T06:08:50.300Z,21.52
2023-01-03T06:11:22.869Z,21.54
2023-01-03T06:13:53.448Z,21.56
2023-01-03T06:16:41.738Z,21.60
2023-01-03T06:19:12.509Z,21.69
2023-01-03T06:21:43.084Z,21.83
2023-01-03T06:24:14.015Z,22.00
2023-01-03T06:26:46.126Z,22.23
2023-01-03T06:29:16.689Z,22.46
2023-01-03T06:31:46.896Z,22.70
2023-01-03T06:34:17.722Z,22.95
2023-01-03T06:36:47.739Z,23.20
2023-01-03T06:39:18.276Z,23.44
2023-01-03T06:41:50.855Z,23.66
2023-01-03T06:44:21.020Z,23.88
2023-01-03T06:47:07.914Z,24.07
2023-01-03T06:50:10.127Z,24.26
2023-01-03T06:52:57.115Z,24.48
2023-01-03T06:55:27.286Z,24.69
2023-01-03T06:57:59.228Z,24.92
2023-01-03T07:00:29.536Z,25.10
2023-01-03T07:03:03.160Z,25.29
2023-01-03T07:05:37.843Z,25.47
2023-01-03T07:08:08.487Z,25.67
2023-01-03T07:10:39.058Z,25.87
2023-01-03T07:13:28.289Z,26.07
2023-01-03T07:15:58.801Z,26.25
2023-01-03T07:18:29.635Z,26.36
2023-01-03T07:21:00.032Z,26.46
2023-01-03T07:23:30.490Z,26.57
2023-01-03T07:26:01.028Z,26.69
2023-01-03T07:28:33.285Z,26.82
2023-01-03T07:31:06.106Z,26.93
2023-01-03T07:33:41.269Z,27.05
2023-01-03T07:36:14.324Z,27.19
2023-01-03T07:38:47.877Z,27.31
2023-01-03T07:41:19.474Z,27.41
2023-01-03T07:43:51.431Z,27.51
2023-01-03T07:46:28.640Z,27.61
2023-01-03T07:49:08.021Z,27.73
2023-01-03T07:51:42.097Z,27.87
2023-01-03T07:54:12.302Z,28.00
2023-01-03T07:56:44.545Z,28.15
2023-01-03T07:59:16.898Z,28.28
2023-01-03T08:01:47.583Z,28.41
2023-01-03T08:04:17.897Z,28.52
2023-01-03T08:06:48.364Z,28.60
2023-01-03T08:09:31.923Z,28.68
2023-01-03T08:12:18.944Z,28.77
2023-01-03T08:14:54.276Z,28.88
2023-01-03T08:17:24.854Z,29.00
2023-01-03T08:19:55.459Z,29.12
2023-01-03T08:22:30.191Z,29.26
2023-01-03T08:25:10.032Z,29.47
2023-01-03T08:27:44.011Z,29.65
2023-01-03T08:30:24.486Z,29.86
2023-01-03T08:32:56.884Z,30.03
2023-01-03T08:35:30.362Z,30.21
2023-01-03T08:38:04.779Z,30.40
2023-01-03T08:40:42.065Z,30.63
2023-01-03T08:43:18.732Z,30.92
2023-01-03T08:45:52.492Z,31.22
2023-01-03T08:48:24.752Z,31.45
2023-01-03T08:50:55.644Z,31.70
2023-01-03T08:53:26.284Z,31.80
2023-01-03T08:55:57.089Z,31.76
2023-01-03T08:58:27.173Z,31.61
2023-01-03T09:01:07.642Z,31.38
2023-01-03T09:03:38.132Z,31.14
2023-01-03T09:06:11.133Z,30.90
2023-01-03T09:08:41.850Z,30.62
2023-01-03T09:11:14.238Z,30.37
2023-01-03T09:13:44.337Z,30.15
2023-01-03T09:16:18.909Z,29.91
2023-01-03T09:18:49.525Z,29.65
2023-01-03T09:21:22.026Z,29.43
2023-01-03T09:23:52.487Z,29.23
2023-01-03T09:26:26.412Z,29.07
2023-01-03T09:28:56.391Z,28.89
2023-01-03T09:31:34.898Z,28.75
2023-01-03T09:34:06.102Z,28.62
2023-01-03T09:36:39.016Z,28.54
2023-01-03T09:39:10.233Z,28.48
2023-01-03T09:41:43.739Z,28.44
2023-01-03T09:44:15.907Z,28.38
2023-01-03T09:46:48.701Z,28.31
2023-01-03T09:49:19.956Z,28.24
2023-01-03T09:52:07.218Z,28.19
2023-01-03T09:54:58.688Z,28.11
2023-01-03T09:57:50.728Z,28.01
2023-01-03T10:00:46.619Z,27.93
2023-01-03T10:03:51.988Z,27.83
2023-01-03T10:06:42.441Z,27.74
2023-01-03T10:09:29.693Z,27.67
2023-01-03T10:12:19.052Z,27.59
2023-01-03T10:15:16.376Z,27.49
2023-01-03T10:18:02.246Z,27.36
2023-01-03T10:20:50.135Z,27.27
2023-01-03T10:23:34.761Z,27.19
2023-01-03T10:26:12.987Z,27.12
2023-01-03T10:28:48.019Z,27.05
2023-01-03T10:31:42.648Z,26.99
2023-01-03T10:34:14.432Z,26.94
2023-01-03T10:36:45.806Z,26.91
2023-01-03T10:39:16.808Z,26.88
2023-01-03T10:41:52.667Z,26.86
2023-01-03T10:44:29.565Z,26.81
2023-01-03T10:47:03.256Z,26.76
2023-01-03T10:49:33.494Z,26.71
2023-01-03T10:52:15.306Z,26.68
2023-01-03T10:55:21.082Z,26.64
2023-01-03T10:58:03.566Z,26.56
2023-01-03T11:00:37.809Z,26.49
2023-01-03T11:03:18.640Z,26.44
2023-01-03T11:05:53.143Z,26.38
2023-01-03T11:08:41.005Z,26.33
2023-01-03T11:11:31.841Z,26.30
2023-01-03T11:14:27.203Z,26.26
2023-01-03T11:17:01.756Z,26.20
2023-01-03T11:19:35.122Z,26.17
2023-01-03T11:22:16.926Z,26.13
2023-01-03T11:25:38.124Z,26.08
2023-01-03T11:28:52.099Z,26.06
2023-01-03T11:31:48.715Z,26.01
2023-01-03T11:35:20.949Z,25.98
2023-01-03T11:37:51.108Z,25.94
2023-01-03T11:40:39.096Z,25.90
2023-01-03T11:43:33.636Z,25.87
2023-01-03T11:46:35.087Z,25.82
2023-01-03T11:49:32.274Z,25.80
2023-01-03T11:52:24.040Z,25.79
2023-01-03T11:55:49.556Z,25.78
2023-01-03T11:59:01.151Z,25.75
2023-01-03T12:01:57.773Z,25.73
2023-01-03T12:04:32.493Z,25.69
2023-01-03T12:10:19.210Z,25.64
2023-01-03T12:13:26.922Z,25.62
2023-01-03T12:16:09.549Z,25.59
2023-01-03T12:18:52.660Z,25.58
2023-01-03T12:21:37.323Z,25.56
2023-01-03T12:24:19.995Z,25.53
2023-01-03T12:27:02.892Z,25.52
2023-01-03T12:29:50.085Z,25.51
2023-01-03T12:32:31.149Z,25.49
2023-01-03T12:35:26.439Z,25.46
2023-01-03T12:38:00.251Z,25.44
2023-01-03T12:40:45.602Z,25.42
2023-01-03T12:43:28.017Z,25.43
2023-01-03T12:46:23.264Z,25.43
2023-01-03T12:49:04.959Z,25.40
2023-01-03T12:51:36.270Z,25.38
2023-01-03T12:54:28.439Z,25.36
2023-01-03T12:57:58.757Z,25.33
2023-01-03T13:00:46.738Z,25.30
2023-01-03T13:03:27.010Z,25.32
2023-01-03T13:06:03.381Z,25.32
2023-01-03T13:08:42.253Z,25.33
2023-01-03T13:11:24.623Z,25.33
2023-01-03T13:13:59.916Z,25.31
2023-01-03T13:16:51.803Z,25.30
2023-01-03T13:19:54.723Z,25.27
2023-01-03T13:22:54.659Z,25.23
2023-01-03T13:25:42.634Z,25.19
2023-01-03T13:28:33.865Z,25.15
2023-01-03T13:31:43.593Z,25.10
2023-01-03T13:34:35.016Z,25.07
2023-01-03T13:37:23.977Z,25.02
2023-01-03T13:41:07.673Z,24.98
2023-01-03T13:43:24.207Z,24.95
2023-01-03T13:46:01.515Z,24.93
2023-01-03T13:48:57.937Z,24.89
2023-01-03T13:51:51.605Z,24.85
2023-01-03T13:54:56.578Z,24.82
2023-01-03T13:57:55.644Z,24.80
2023-01-03T14:00:27.634Z,24.79
2023-01-03T14:03:40.671Z,24.80
2023-01-03T14:06:57.220Z,24.79
2023-01-03T14:09:55.497Z,24.77
2023-01-03T14:13:09.785Z,24.74
2023-01-03T14:15:44.067Z,24.73
2023-01-03T14:18:24.259Z,24.73
2023-01-03T14:21:00.487Z,24.71
2023-01-03T14:23:59.171Z,24.71
2023-01-03T14:26:27.130Z,24.70
2023-01-03T14:28:58.373Z,24.69
2023-01-03T14:31:31.638Z,24.69
2023-01-03T14:34:18.040Z,24.69
2023-01-03T14:36:54.102Z,24.67
2023-01-03T14:42:06.539Z,24.61
2023-01-03T14:44:37.798Z,24.59
2023-01-03T14:47:18.161Z,24.55
2023-01-03T14:49:54.593Z,24.55
2023-01-03T14:52:34.798Z,24.53
2023-01-03T14:55:09.340Z,24.51
2023-01-03T14:57:45.740Z,24.52
2023-01-03T15:00:29.995Z,24.53
2023-01-03T15:03:11.861Z,24.51
2023-01-03T15:05:43.888Z,24.52
2023-01-03T15:08:29.007Z,24.53
2023-01-03T15:11:04.544Z,24.52
2023-01-03T15:13:42.569Z,24.53
2023-01-03T15:16:27.749Z,24.52
2023-01-03T15:19:10.265Z,24.51
2023-01-03T15:21:42.735Z,24.48
2023-01-03T15:24:19.467Z,24.45
2023-01-03T15:26:52.624Z,24.44
2023-01-03T15:29:29.032Z,24.43
2023-01-03T15:32:13.949Z,24.42
2023-01-03T15:34:45.592Z,24.41
2023-01-03T15:37:24.891Z,24.41
2023-01-03T15:39:59.124Z,24.39
2023-01-03T15:42:57.981Z,24.38
2023-01-03T15:45:40.207Z,24.35
2023-01-03T15:48:22.283Z,24.33
2023-01-03T15:50:56.259Z,24.29
2023-01-03T15:53:31.384Z,24.25
2023-01-03T15:56:08.004Z,24.17
2023-01-03T15:58:40.155Z,24.10
2023-01-03T16:01:15.192Z,24.03
2023-01-03T16:03:46.490Z,23.96
2023-01-03T16:06:17.062Z,23.90
2023-01-03T16:08:48.575Z,23.85
2023-01-03T16:11:25.552Z,23.83
2023-01-03T16:14:02.875Z,23.82
2023-01-03T16:16:42.963Z,23.80
2023-01-03T16:19:22.841Z,23.79
2023-01-03T16:22:32.856Z,23.76
2023-01-03T16:24:51.535Z,23.71
2023-01-03T16:27:26.047Z,23.66
2023-01-03T16:29:56.109Z,23.64
2023-01-03T16:32:35.997Z,23.59
2023-01-03T16:35:29.977Z,23.53
2023-01-03T16:38:00.187Z,23.47
2023-01-03T16:40:35.840Z,23.43
2023-01-03T16:43:10.525Z,23.40
2023-01-03T16:45:47.336Z,23.36
2023-01-03T16:48:24.373Z,23.33
2023-01-03T16:50:57.297Z,23.28
2023-01-03T16:53:37.774Z,23.24
2023-01-03T16:56:14.053Z,23.20
2023-01-03T16:58:44.122Z,23.18
2023-01-03T17:01:14.991Z,23.14
2023-01-03T17:03:47.688Z,23.12
2023-01-03T17:06:37.615Z,23.10
2023-01-03T17:09:16.645Z,23.10
2023-01-03T17:11:47.565Z,23.09
2023-01-03T17:14:22.094Z,23.12
2023-01-03T17:16:53.560Z,23.13
2023-01-03T17:20:02.724Z,23.16
2023-01-03T17:22:21.510Z,23.16
2023-01-03T17:24:53.873Z,23.15
2023-01-03T17:27:33.016Z,23.13
2023-01-03T17:30:06.841Z,23.09
2023-01-03T17:32:37.261Z,23.10
2023-01-03T17:35:15.822Z,23.12
2023-01-03T17:40:38.683Z,23.10
2023-01-03T17:43:08.426Z,23.07
2023-01-03T17:45:55.344Z,23.04
2023-01-03T17:48:42.017Z,22.99
2023-01-03T17:51:14.351Z,22.93
2023-01-03T17:53:45.638Z,22.90
2023-01-03T17:56:22.190Z,22.87
2023-01-03T17:58:56.436Z,22.84
2023-01-03T18:01:27.427Z,22.81
2023-01-03T18:03:58.025Z,22.79
2023-01-03T18:06:30.080Z,22.78
2023-01-03T18:09:00.803Z,22.79
2023-01-03T18:11:31.092Z,22.80
2023-01-03T18:14:01.643Z,22.82
2023-01-03T18:16:31.966Z,22.84
2023-01-03T18:19:02.264Z,22.88
2023-01-03T18:21:36.685Z,22.89
2023-01-03T18:24:17.304Z,22.90
2023-01-03T18:26:53.473Z,22.92
2023-01-03T18:29:23.470Z,22.93
2023-01-03T18:31:53.825Z,22.94
2023-01-03T18:34:24.151Z,22.96
2023-01-03T18:36:56.687Z,22.97
2023-01-03T18:39:31.426Z,22.97
2023-01-03T18:42:22.173Z,22.97
2023-01-03T18:44:52.457Z,22.93
2023-01-03T18:47:23.779Z,22.95
2023-01-03T18:49:54.711Z,22.97
2023-01-03T18:52:34.239Z,22.99
2023-01-03T18:55:04.867Z,23.00
2023-01-03T18:57:34.894Z,23.01
2023-01-03T19:00:07.207Z,23.01
2023-01-03T19:02:38.769Z,23.00
2023-01-03T19:05:11.264Z,22.97
2023-01-03T19:07:46.420Z,22.95
2023-01-03T19:10:25.240Z,22.93
2023-01-03T19:12:59.409Z,22.89
2023-01-03T19:15:31.038Z,22.85
2023-01-03T19:18:01.895Z,22.82
2023-01-03T19:20:32.616Z,22.80
2023-01-03T19:23:04.516Z,22.79
2023-01-03T19:25:35.467Z,22.77
2023-01-03T19:28:07.082Z,22.75
2023-01-03T19:30:41.914Z,22.75
2023-01-03T19:33:19.663Z,22.75
2023-01-03T19:35:51.429Z,22.73
2023-01-03T19:38:23.034Z,22.72
2023-01-03T19:40:53.503Z,22.69
2023-01-03T19:43:25.797Z,22.67
2023-01-03T19:45:55.697Z,22.65
2023-01-03T19:48:28.061Z,22.66
2023-01-03T19:50:58.038Z,22.68
2023-01-03T19:53:29.644Z,22.69
2023-01-03T19:56:00.296Z,22.68
2023-01-03T19:58:35.158Z,22.68
2023-01-03T20:01:06.813Z,22.67
2023-01-03T20:03:40.738Z,22.67
2023-01-03T20:06:15.749Z,22.67
2023-01-03T20:08:48.355Z,22.67
2023-01-03T20:11:23.340Z,22.67
2023-01-03T20:13:53.594Z,22.67
2023-01-03T20:16:24.324Z,22.69
2023-01-03T20:18:54.775Z,22.74
2023-01-03T20:21:34.302Z,22.78
2023-01-03T20:24:09.815Z,22.81
2023-01-03T20:26:40.421Z,22.82
2023-01-03T20:29:13.157Z,22.86
2023-01-03T20:31:43.522Z,22.87
2023-01-03T20:34:14.033Z,22.87
2023-01-03T20:36:49.629Z,22.86
2023-01-03T20:39:28.479Z,22.84
2023-01-03T20:42:03.488Z,22.83
2023-01-03T20:44:34.394Z,22.82
2023-01-03T20:47:06.638Z,22.84
2023-01-03T20:49:40.583Z,22.81
2023-01-03T20:52:18.669Z,22.77
2023-01-03T20:54:50.604Z,22.71
2023-01-03T20:57:22.214Z,22.66
2023-01-03T20:59:52.385Z,22.61
2023-01-03T21:02:23.013Z,22.58
2023-01-03T21:04:53.475Z,22.56
2023-01-03T21:07:52.230Z,22.53
2023-01-03T21:10:26.026Z,22.49
2023-01-03T21:12:56.000Z,22.46
2023-01-03T21:15:26.292Z,22.44
2023-01-03T21:17:56.088Z,22.44
2023-01-03T21:20:29.730Z,22.45
2023-01-03T21:23:00.443Z,22.45
2023-01-03T21:25:35.983Z,22.42
2023-01-03T21:28:07.133Z,22.39
2023-01-03T21:30:37.169Z,22.38
2023-01-03T21:33:07.352Z,22.36
2023-01-03T21:35:41.325Z,22.34
2023-01-03T21:38:13.355Z,22.29
2023-01-03T21:40:45.315Z,22.25
2023-01-03T21:43:15.752Z,22.22
2023-01-03T21:45:48.823Z,22.21
2023-01-03T21:48:20.660Z,22.21
2023-01-03T21:50:52.068Z,22.21
2023-01-03T21:53:25.274Z,22.20
2023-01-03T21:55:56.965Z,22.19
2023-01-03T21:58:27.170Z,22.18
2023-01-03T22:00:57.671Z,22.16
2023-01-03T22:03:46.886Z,22.14
2023-01-03T22:06:16.788Z,22.13
2023-01-03T22:08:54.749Z,22.13
2023-01-03T22:11:28.262Z,22.12
2023-01-03T22:14:02.217Z,22.14
2023-01-03T22:16:32.810Z,22.11
2023-01-03T22:19:02.669Z,22.11
2023-01-03T22:21:34.305Z,22.10
2023-01-03T22:24:04.374Z,22.09
2023-01-03T22:26:35.925Z,22.10
2023-01-03T22:29:07.859Z,22.11
2023-01-03T22:31:38.151Z,22.12
2023-01-03T22:34:08.533Z,22.15
2023-01-03T22:36:38.891Z,22.19
2023-01-03T22:39:09.195Z,22.23
2023-01-03T22:41:41.591Z,22.26
2023-01-03T22:44:12.622Z,22.28
2023-01-03T22:46:43.364Z,22.29
2023-01-03T22:49:13.923Z,22.31
2023-01-03T22:51:44.160Z,22.32
2023-01-03T22:54:14.440Z,22.34
2023-01-03T22:56:46.669Z,22.37
2023-01-03T22:59:16.737Z,22.39
2023-01-03T23:01:47.302Z,22.40
2023-01-03T23:04:19.491Z,22.43
2023-01-03T23:06:49.571Z,22.46
2023-01-03T23:09:19.934Z,22.46
2023-01-03T23:12:09.490Z,22.48
2023-01-03T23:14:39.322Z,22.48
2023-01-03T23:17:26.658Z,22.49
2023-01-03T23:19:56.488Z,22.51
2023-01-03T23:22:27.116Z,22.54
2023-01-03T23:24:58.288Z,22.56
2023-01-03T23:27:30.178Z,22.57
2023-01-03T23:30:00.161Z,22.58
2023-01-03T23:32:30.855Z,22.60
2023-01-03T23:35:01.400Z,22.61
2023-01-03T23:37:32.137Z,22.62
2023-01-03T23:40:03.265Z,22.63
2023-01-03T23:42:35.731Z,22.66
2023-01-03T23:45:07.155Z,22.68
2023-01-03T23:47:37.611Z,22.70
2023-01-03T23:50:08.317Z,22.71
2023-01-03T23:52:38.567Z,22.73
2023-01-03T23:55:12.638Z,22.74
2023-01-03T23:57:44.924Z,22.76
